GW1031 Weather Reports


Display with metric or nautical units.
time (UTC)temp
F
wind
direction
speed
MPH
gust
MPH
rain 1hr
in
rain 24hr
in
rain mn
in
humidity
%
barometer
mb
20220929051224 52 357 0.0 0.0 0.00 0.00 0.00 77 1030.9
20220929050722 51 357 0.0 0.0 0.00 0.00 0.00 80 1030.7
20220929050223 52 2 0.0 0.0 0.00 0.00 0.00 79 1031.3
20220929045722 52 355 0.0 0.0 0.00 0.00 0.00 77 1030.7
20220929045222 52 303 0.0 0.0 0.00 0.00 0.00 74 1030.9
20220929044720 52 303 0.0 0.0 0.00 0.00 0.00 75 1030.9
20220929044220 52 298 0.0 0.0 0.00 0.00 0.00 74 1030.8
20220929043718 53 302 1.0 1.0 0.00 0.00 0.00 74 1030.7
20220929043218 53 357 0.0 0.0 0.00 0.00 0.00 77 1030.8
20220929042718 54 345 0.0 0.0 0.00 0.00 0.00 72 1030.6
20220929042216 54 334 0.0 0.0 0.00 0.00 0.00 73 1030.4
20220929041715 54 279 0.0 0.0 0.00 0.00 0.00 70 1030.7
20220929041214 53 332 0.0 0.0 0.00 0.00 0.00 70 1030.7
20220929040713 54 333 0.0 0.0 0.00 0.00 0.00 72 1030.8
20220929040211 55 350 0.0 0.0 0.00 0.00 0.00 70 1030.3
20220929035709 56 351 0.0 0.0 0.00 0.00 0.00 66 1030.6
20220929035210 57 2 0.0 0.0 0.00 0.00 0.00 64 1030.3
20220929034708 58 150 1.0 1.0 0.00 0.00 0.00 57 1030.3
20220929034208 58 301 0.0 0.0 0.00 0.00 0.00 61 1030.4
20220929033707 59 270 0.0 0.0 0.00 0.00 0.00 59 1030.1
20220929033206 58 238 1.0 1.0 0.00 0.00 0.00 58 1030.2
20220929032706 56 285 0.0 1.0 0.00 0.00 0.00 64 1030.2
20220929032204 57 311 0.0 0.0 0.00 0.00 0.00 64 1030.1
20220929031704 58 306 0.0 0.0 0.00 0.00 0.00 62 1029.8
20220929031203 58 296 0.0 0.0 0.00 0.00 0.00 65 1030.2
20220929030703 59 280 0.0 0.0 0.00 0.00 0.00 63 1029.9
20220929030203 59 287 0.0 0.0 0.00 0.00 0.00 61 1030.2
20220929025701 59 290 0.0 1.0 0.00 0.00 0.00 60 1029.8
20220929025200 61 358 0.0 0.0 0.00 0.00 0.00 58 1029.8
20220929024658 61 79 0.0 1.0 0.00 0.00 0.00 53 1029.7
20220929024159 61 131 0.0 1.0 0.00 0.00 0.00 52 1029.7
20220929023658 62 52 0.0 0.0 0.00 0.00 0.00 55 1029.7
20220929023158 63 17 0.0 0.0 0.00 0.00 0.00 52 1029.6
20220929022657 62 78 1.0 1.0 0.00 0.00 0.00 50 1029.2
20220929022156 63 7 0.0 0.0 0.00 0.00 0.00 50 1029.6
20220929021655 62 332 0.0 0.0 0.00 0.00 0.00 55 1029.3
20220929021153 62 273 0.0 0.0 0.00 0.00 0.00 52 1029.3
20220929020652 62 341 2.0 2.0 0.00 0.00 0.00 53 1029.5
20220929020148 62 59 1.0 1.0 0.00 0.00 0.00 52 1029.1
20220929015647 63 52 0.0 0.0 0.00 0.00 0.00 53 1029.0
20220929015147 63 277 2.0 2.0 0.00 0.00 0.00 49 1029.1
20220929014647 62 335 0.0 0.0 0.00 0.00 0.00 54 1029.3
20220929014146 62 117 1.0 2.0 0.00 0.00 0.00 55 1029.5
20220929013645 63 263 3.0 9.0 0.00 0.00 0.00 55 1029.5
20220929013144 62 160 2.0 3.0 0.00 0.00 0.00 56 1029.6
20220929012642 63 326 0.0 0.0 0.00 0.00 0.00 57 1029.8
20220929012142 64 72 1.0 2.0 0.00 0.00 0.00 56 1029.6
20220929011642 65 274 1.0 1.0 0.00 0.00 0.00 50 1029.6
20220929011142 65 257 3.0 5.0 0.00 0.00 0.00 47 1029.5
20220929010642 65 105 1.0 1.0 0.00 0.00 0.00 46 1029.5
20220929010141 66 241 0.0 1.0 0.00 0.00 0.00 45 1029.0
20220929005641 66 341 0.0 0.0 0.00 0.00 0.00 44 1028.7
20220929005140 67 309 0.0 0.0 0.00 0.00 0.00 41 1028.7
20220929004640 67 344 0.0 0.0 0.00 0.00 0.00 47 1028.7
20220929004139 67 342 0.0 0.0 0.00 0.00 0.00 46 1028.5
20220929003639 67 347 0.0 0.0 0.00 0.00 0.00 46 1028.4
20220929003137 68 345 0.0 0.0 0.00 0.00 0.00 49 1028.7
20220929002636 68 10 1.0 2.0 0.00 0.00 0.00 43 1028.4
20220929002135 68 84 1.0 1.0 0.00 0.00 0.00 44 1028.5
20220929001633 70 345 0.0 1.0 0.00 0.00 0.00 43 1028.4
20220929001132 73 316 0.0 0.0 0.00 0.00 0.00 46 1028.2
20220929000631 73 284 0.0 0.0 0.00 0.00 0.00 42 1028.2
20220929000130 74 283 0.0 0.0 0.00 0.00 0.00 37 1027.9
20220928235628 73 283 0.0 0.0 0.00 0.00 0.00 48 1028.0
20220928235128 70 257 0.0 0.0 0.00 0.00 0.00 43 1028.2
20220928234627 69 338 0.0 0.0 0.00 0.00 0.00 50 1028.1
20220928234127 67 337 0.0 0.0 0.00 0.00 0.00 57 1027.9
20220928233626 66 341 0.0 0.0 0.00 0.00 0.00 57 1027.9
20220928233126 66 341 0.0 0.0 0.00 0.00 0.00 56 1027.9
20220928232626 66 334 0.0 0.0 0.00 0.00 0.00 49 1028.0
20220928232125 68 334 0.0 0.0 0.00 0.00 0.00 48 1028.0
20220928231624 68 335 0.0 0.0 0.00 0.00 0.00 47 1028.0
20220928231123 70 333 0.0 0.0 0.00 0.00 0.00 44 1028.0
20220928230622 71 293 0.0 0.0 0.00 0.00 0.00 42 1028.2
20220928230120 73 12 0.0 0.0 0.00 0.00 0.00 35 1028.1
20220928225619 73 270 1.0 1.0 0.00 0.00 0.00 36 1027.9
20220928225119 75 261 0.0 1.0 0.00 0.00 0.00 34 1028.1
20220928224617 77 250 4.0 6.0 0.00 0.00 0.00 31 1027.9
20220928224115 78 278 0.0 1.0 0.00 0.00 0.00 31 1028.0
20220928223615 76 248 1.0 1.0 0.00 0.00 0.00 31 1028.2
20220928223115 77 303 0.0 0.0 0.00 0.00 0.00 40 1028.4
20220928222616 78 273 1.0 1.0 0.00 0.00 0.00 32 1028.2
20220928222114 78 297 0.0 0.0 0.00 0.00 0.00 32 1028.2
20220928221613 76 278 1.0 2.0 0.00 0.00 0.00 33 1028.1
20220928221112 78 215 2.0 3.0 0.00 0.00 0.00 28 1028.2
20220928220611 78 270 1.0 2.0 0.00 0.00 0.00 30 1028.5
20220928220110 77 61 1.0 2.0 0.00 0.00 0.00 32 1028.2
20220928215608 78 255 3.0 3.0 0.00 0.00 0.00 31 1028.5
20220928215107 77 298 0.0 0.0 0.00 0.00 0.00 34 1028.6
20220928214607 76 111 1.0 1.0 0.00 0.00 0.00 31 1028.6
20220928214105 76 349 0.0 1.0 0.00 0.00 0.00 35 1028.6
20220928213603 80 237 2.0 3.0 0.00 0.00 0.00 36 1028.4
20220928213102 79 358 0.0 1.0 0.00 0.00 0.00 32 1028.6
20220928212601 78 307 1.0 1.0 0.00 0.00 0.00 34 1028.7
20220928212100 77 69 2.0 3.0 0.00 0.00 0.00 31 1028.8
20220928211559 78 314 0.0 1.0 0.00 0.00 0.00 35 1028.7
20220928211059 78 5 0.0 0.0 0.00 0.00 0.00 37 1028.7
20220928210559 77 295 1.0 1.0 0.00 0.00 0.00 31 1029.0
20220928210058 79 256 3.0 3.0 0.00 0.00 0.00 30 1028.8
20220928205557 78 54 1.0 2.0 0.00 0.00 0.00 30 1029.0
20220928205056 77 297 1.0 1.0 0.00 0.00 0.00 33 1029.0
20220928204554 78 75 1.0 1.0 0.00 0.00 0.00 33 1029.3
20220928204052 78 173 2.0 2.0 0.00 0.00 0.00 35 1029.1
20220928203550 77 224 2.0 2.0 0.00 0.00 0.00 31 1029.3
20220928203050 77 335 1.0 1.0 0.00 0.00 0.00 35 1029.3
20220928202549 77 309 0.0 1.0 0.00 0.00 0.00 35 1029.9
20220928202048 77 251 3.0 3.0 0.00 0.00 0.00 33 1029.7
20220928201548 76 280 1.0 2.0 0.00 0.00 0.00 33 1029.6
20220928201047 76 244 1.0 2.0 0.00 0.00 0.00 33 1029.7
20220928200548 76 244 1.0 1.0 0.00 0.00 0.00 38 1029.8
20220928200047 76 0 1.0 2.0 0.00 0.00 0.00 36 1029.8
20220928195545 76 276 1.0 2.0 0.00 0.00 0.00 33 1029.9
20220928195045 77 259 1.0 1.0 0.00 0.00 0.00 33 1029.9
20220928194545 77 275 3.0 5.0 0.00 0.00 0.00 30 1030.1
20220928194044 77 269 2.0 2.0 0.00 0.00 0.00 33 1030.1
20220928193544 76 256 3.0 3.0 0.00 0.00 0.00 36 1030.3
20220928193044 76 211 2.0 2.0 0.00 0.00 0.00 33 1030.2
20220928192542 76 164 0.0 1.0 0.00 0.00 0.00 35 1030.3
20220928192041 76 298 2.0 2.0 0.00 0.00 0.00 34 1030.6
20220928191540 76 272 0.0 1.0 0.00 0.00 0.00 34 1030.6
20220928191039 77 189 1.0 2.0 0.00 0.00 0.00 34 1030.4
20220928190539 76 304 2.0 2.0 0.00 0.00 0.00 38 1030.8
20220928190037 76 344 1.0 1.0 0.00 0.00 0.00 37 1030.4
20220928185537 75 114 1.0 2.0 0.00 0.00 0.00 37 1031.0
20220928185036 76 234 3.0 5.0 0.00 0.00 0.00 36 1030.8
20220928184533 76 200 1.0 1.0 0.00 0.00 0.00 37 1030.9
20220928184032 75 237 1.0 2.0 0.00 0.00 0.00 38 1030.8
20220928183532 75 168 1.0 2.0 0.00 0.00 0.00 35 1030.8
20220928183031 75 192 1.0 1.0 0.00 0.00 0.00 38 1031.0
20220928182530 75 325 0.0 0.0 0.00 0.00 0.00 42 1030.9
20220928182028 75 161 1.0 2.0 0.00 0.00 0.00 36 1031.3
20220928181527 75 265 2.0 2.0 0.00 0.00 0.00 37 1031.2
20220928181026 74 250 3.0 3.0 0.00 0.00 0.00 36 1031.2
20220928180524 73 216 1.0 1.0 0.00 0.00 0.00 39 1031.4
20220928180023 74 86 1.0 1.0 0.00 0.00 0.00 39 1031.5
20220928175522 71 358 0.0 0.0 0.00 0.00 0.00 45 1031.5
20220928175022 72 240 1.0 1.0 0.00 0.00 0.00 40 1031.5
20220928174519 72 350 0.0 0.0 0.00 0.00 0.00 49 1031.6
20220928174018 72 288 0.0 0.0 0.00 0.00 0.00 44 1031.5
20220928173517 71 262 0.0 0.0 0.00 0.00 0.00 52 1031.8
20220928173017 70 88 1.0 1.0 0.00 0.00 0.00 44 1031.8
20220928172517 68 14 1.0 1.0 0.00 0.00 0.00 46 1032.0
20220928172016 68 90 3.0 3.0 0.00 0.00 0.00 47 1031.8
20220928171515 67 119 0.0 0.0 0.00 0.00 0.00 48 1032.0
20220928171014 66 25 0.0 1.0 0.00 0.00 0.00 51 1032.1
20220928170513 65 13 1.0 1.0 0.00 0.00 0.00 50 1032.3
20220928170013 65 12 0.0 0.0 0.00 0.00 0.00 53 1032.4
20220928165513 65 264 0.0 0.0 0.00 0.00 0.00 47 1032.4
20220928165011 65 54 0.0 0.0 0.00 0.00 0.00 54 1032.4
20220928164510 64 116 1.0 1.0 0.00 0.00 0.00 53 1032.6
20220928164008 64 56 0.0 0.0 0.00 0.00 0.00 56 1032.3
20220928163508 64 105 0.0 0.0 0.00 0.00 0.00 54 1032.5
20220928163006 63 32 0.0 0.0 0.00 0.00 0.00 59 1032.6
20220928162504 62 262 0.0 0.0 0.00 0.00 0.00 54 1032.5
20220928162002 62 8 0.0 0.0 0.00 0.00 0.00 56 1032.7
20220928161501 61 290 1.0 1.0 0.00 0.00 0.00 55 1032.6
20220928161001 61 349 0.0 1.0 0.00 0.00 0.00 56 1032.4
20220928160500 61 354 0.0 1.0 0.00 0.00 0.00 59 1032.6
20220928155958 60 57 1.0 1.0 0.00 0.00 0.00 60 1032.5
20220928155457 60 0 0.0 0.0 0.00 0.00 0.00 62 1032.7
20220928154957 60 11 0.0 0.0 0.00 0.00 0.00 64 1032.7
20220928154456 59 332 0.0 0.0 0.00 0.00 0.00 63 1032.9
20220928153956 59 336 0.0 0.0 0.00 0.00 0.00 63 1032.6
20220928153454 58 49 0.0 1.0 0.00 0.00 0.00 64 1032.4
20220928152954 58 315 0.0 0.0 0.00 0.00 0.00 60 1032.7
20220928152453 57 52 0.0 0.0 0.00 0.00 0.00 65 1032.6
20220928151951 57 35 0.0 0.0 0.00 0.00 0.00 69 1032.9
20220928151450 57 65 0.0 0.0 0.00 0.00 0.00 69 1032.9
20220928150950 57 277 0.0 0.0 0.00 0.00 0.00 64 1032.6
20220928150449 56 312 0.0 0.0 0.00 0.00 0.00 62 1032.6
20220928145948 56 33 0.0 0.0 0.00 0.00 0.00 66 1032.7
20220928145448 55 350 0.0 0.0 0.00 0.00 0.00 71 1032.7
20220928144945 54 359 0.0 0.0 0.00 0.00 0.00 71 1032.7
20220928144444 54 325 0.0 0.0 0.00 0.00 0.00 75 1032.9
20220928143944 53 325 0.0 0.0 0.00 0.00 0.00 75 1032.7
20220928143444 52 344 0.0 0.0 0.00 0.00 0.00 79 1033.0
20220928142943 51 35 0.0 1.0 0.00 0.00 0.00 83 1033.1
20220928142443 51 36 0.0 1.0 0.00 0.00 0.00 86 1032.9
20220928141941 51 358 0.0 0.0 0.00 0.00 0.00 86 1032.7
20220928141439 50 330 0.0 0.0 0.00 0.00 0.00 86 1032.9
20220928140938 49 43 0.0 0.0 0.00 0.00 0.00 90 1032.9
20220928140437 47 323 0.0 0.0 0.00 0.00 0.00 89 1032.7
20220928135935 45 324 0.0 0.0 0.00 0.00 0.00 91 1032.7
20220928135434 45 331 0.0 0.0 0.00 0.00 0.00 92 1032.5
20220928134933 44 331 0.0 0.0 0.00 0.00 0.00 94 1032.9
20220928134430 44 331 0.0 0.0 0.00 0.00 0.00 93 1032.7
20220928133929 44 337 0.0 0.0 0.00 0.00 0.00 94 1032.5
20220928133428 44 356 0.0 0.0 0.00 0.00 0.00 94 1032.4
20220928132928 43 324 0.0 0.0 0.00 0.00 0.00 94 1032.5
20220928132426 43 323 0.0 0.0 0.00 0.00 0.00 95 1032.3
20220928131926 43 323 0.0 0.0 0.00 0.00 0.00 95 1032.4
20220928131423 43 323 0.0 0.0 0.00 0.00 0.00 95 1032.1
20220928130922 42 330 0.0 0.0 0.00 0.00 0.00 95 1032.3
20220928130420 43 335 0.0 0.0 0.00 0.00 0.00 95 1032.3
20220928125918 43 334 0.0 0.0 0.00 0.00 0.00 95 1032.1
20220928125417 42 319 0.0 0.0 0.00 0.00 0.00 95 1031.9
20220928124916 42 319 0.0 0.0 0.00 0.00 0.00 95 1032.0
20220928124416 42 319 0.0 0.0 0.00 0.00 0.00 96 1032.3
20220928123916 42 319 0.0 0.0 0.00 0.00 0.00 96 1032.3
20220928123416 41 322 0.0 0.0 0.00 0.00 0.00 96 1032.1
20220928122915 41 322 0.0 0.0 0.00 0.00 0.00 96 1031.9
20220928122415 41 326 0.0 0.0 0.00 0.00 0.00 96 1031.8
20220928121914 41 16 0.0 0.0 0.00 0.00 0.00 96 1032.0
20220928121412 41 312 0.0 0.0 0.00 0.00 0.00 96 1031.9
20220928120911 41 356 0.0 0.0 0.00 0.00 0.00 97 1031.9
20220928120411 41 348 0.0 0.0 0.00 0.00 0.00 97 1031.8
20220928115910 41 348 0.0 0.0 0.00 0.00 0.00 97 1032.0
20220928115407 41 21 0.0 0.0 0.00 0.00 0.00 97 1031.8
20220928114906 41 56 2.0 2.0 0.00 0.00 0.00 97 1031.6
20220928114405 40 316 0.0 0.0 0.00 0.00 0.00 97 1031.6
20220928113904 41 316 0.0 0.0 0.00 0.00 0.00 97 1031.4
20220928113402 41 329 0.0 0.0 0.00 0.00 0.00 97 1031.6
20220928112902 41 329 0.0 0.0 0.00 0.00 0.00 97 1031.5
20220928112401 41 329 0.0 1.0 0.00 0.00 0.00 97 1031.5
20220928111859 40 329 0.0 0.0 0.00 0.00 0.00 97 1031.5
20220928111359 41 329 0.0 0.0 0.00 0.00 0.00 97 1031.3
20220928110859 40 329 0.0 0.0 0.00 0.00 0.00 97 1031.5
20220928110358 41 329 0.0 0.0 0.00 0.00 0.00 97 1031.4
20220928105854 41 329 0.0 0.0 0.00 0.00 0.00 97 1031.3
20220928105353 41 329 0.0 0.0 0.00 0.00 0.00 97 1031.5
20220928104852 41 329 0.0 0.0 0.00 0.00 0.00 97 1031.3
20220928104350 41 323 0.0 0.0 0.00 0.00 0.00 97 1031.2
20220928103850 41 323 0.0 0.0 0.00 0.00 0.00 97 1031.4
20220928103351 41 323 0.0 0.0 0.00 0.00 0.00 97 1031.4
20220928102849 41 323 0.0 0.0 0.00 0.00 0.00 97 1031.4
20220928102348 41 323 0.0 0.0 0.00 0.00 0.00 96 1031.3
20220928101848 41 323 0.0 0.0 0.00 0.00 0.00 96 1031.4
20220928101347 41 322 0.0 0.0 0.00 0.00 0.00 96 1031.2
20220928100847 42 322 0.0 0.0 0.00 0.00 0.00 96 1031.4
20220928100347 42 322 0.0 0.0 0.00 0.00 0.00 96 1031.4
20220928095847 41 355 0.0 0.0 0.00 0.00 0.00 96 1031.3
20220928095347 41 316 0.0 0.0 0.00 0.00 0.00 95 1031.3
20220928094846 42 316 0.0 0.0 0.00 0.00 0.00 96 1031.4
20220928094345 42 316 0.0 0.0 0.00 0.00 0.00 95 1031.5
20220928093845 42 316 0.0 0.0 0.00 0.00 0.00 95 1031.5
20220928093343 42 316 0.0 0.0 0.00 0.00 0.00 96 1031.3
20220928092841 42 311 0.0 0.0 0.00 0.00 0.00 96 1031.5
20220928092339 42 311 0.0 0.0 0.00 0.00 0.00 96 1031.3
20220928091837 42 316 0.0 0.0 0.00 0.00 0.00 95 1031.5
20220928091335 42 317 0.0 0.0 0.00 0.00 0.00 96 1031.3
20220928090834 42 302 0.0 0.0 0.00 0.00 0.00 96 1031.2
20220928090333 42 302 0.0 0.0 0.00 0.00 0.00 96 1031.2
20220928085833 42 302 0.0 0.0 0.00 0.00 0.00 96 1031.0
20220928085333 42 302 0.0 0.0 0.00 0.00 0.00 95 1031.5
20220928084831 42 296 0.0 0.0 0.00 0.00 0.00 96 1031.2
20220928084330 42 296 0.0 0.0 0.00 0.00 0.00 95 1031.2
20220928083830 42 296 0.0 0.0 0.00 0.00 0.00 94 1031.3
20220928083329 43 296 0.0 0.0 0.00 0.00 0.00 94 1031.2
20220928082828 43 296 0.0 0.0 0.00 0.00 0.00 94 1031.3
20220928082326 43 296 0.0 0.0 0.00 0.00 0.00 93 1031.3
20220928081825 43 296 0.0 0.0 0.00 0.00 0.00 94 1031.2
20220928081325 43 296 0.0 0.0 0.00 0.00 0.00 94 1031.2
20220928080824 43 319 0.0 0.0 0.00 0.00 0.00 95 1031.4
20220928080323 44 319 0.0 0.0 0.00 0.00 0.00 94 1031.0
20220928075821 43 332 0.0 0.0 0.00 0.00 0.00 94 1031.0
20220928075319 44 338 0.0 0.0 0.00 0.00 0.00 94 1031.0
20220928074819 44 332 0.0 0.0 0.00 0.00 0.00 94 1031.0
20220928074319 44 312 0.0 0.0 0.00 0.00 0.00 93 1031.3
20220928073817 43 318 0.0 0.0 0.00 0.00 0.00 93 1031.0
20220928073317 44 322 0.0 0.0 0.00 0.00 0.00 93 1031.2
20220928072817 44 312 0.0 0.0 0.00 0.00 0.00 92 1030.9
20220928072315 44 321 0.0 0.0 0.00 0.00 0.00 92 1031.3
20220928071813 45 351 0.0 0.0 0.00 0.00 0.00 92 1031.3
20220928071311 45 355 0.0 0.0 0.00 0.00 0.00 92 1031.2
20220928070811 44 342 0.0 0.0 0.00 0.00 0.00 92 1031.2
20220928070311 45 342 0.0 0.0 0.00 0.00 0.00 91 1031.2
20220928065810 46 342 0.0 0.0 0.00 0.00 0.00 91 1030.9
20220928065310 46 326 0.0 0.0 0.00 0.00 0.00 90 1031.2
20220928064810 46 19 0.0 0.0 0.00 0.00 0.00 92 1031.2
20220928064308 46 343 0.0 0.0 0.00 0.00 0.00 91 1031.4
20220928063806 46 338 0.0 0.0 0.00 0.00 0.00 90 1031.3
20220928063305 46 355 0.0 0.0 0.00 0.00 0.00 90 1031.0
20220928062804 46 319 0.0 0.0 0.00 0.00 0.00 88 1030.8
20220928062304 47 311 0.0 0.0 0.00 0.00 0.00 87 1030.9
20220928061803 46 310 0.0 0.0 0.00 0.00 0.00 88 1031.2
20220928061302 47 310 0.0 0.0 0.00 0.00 0.00 87 1031.0
20220928060801 48 303 0.0 0.0 0.00 0.00 0.00 85 1031.0
20220928060259 48 348 1.0 1.0 0.00 0.00 0.00 85 1031.0
20220928055758 48 6 1.0 1.0 0.00 0.00 0.00 86 1031.0
20220928055256 48 309 0.0 0.0 0.00 0.00 0.00 84 1031.3
20220928054755 48 293 0.0 0.0 0.00 0.00 0.00 84 1031.0
20220928054254 48 313 0.0 0.0 0.00 0.00 0.00 85 1031.0
20220928053754 48 342 0.0 0.0 0.00 0.00 0.00 86 1031.2
20220928053254 48 346 0.0 0.0 0.00 0.00 0.00 84 1031.2
20220928052753 48 336 0.0 0.0 0.00 0.00 0.00 83 1030.9
20220928052253 48 347 0.0 0.0 0.00 0.00 0.00 88 1030.9
20220928051753 47 261 0.0 0.0 0.00 0.00 0.00 85 1030.9